Huvudsida
METAR-TAF:

METAR-TAF

Flygplatser :

Kuwaits internationella flygplats

Kuwait, Kuwait

latitud: 29-13N, longitud: 047-59E, höjd: 55 m

Aktuellt väderrapport

Denna rapport gjordes för 31 minuter sedan, klockan 00:00 UTC
Vind 9 kt från nord
Temperatur 17°C
Fuktighet 77%
Tryck 1018 hPa
Sikt 10 km eller mer
Inga moln under 1 500 m eller inga cumulonimbus

METAR: OKBK 190000Z 35009KT CAVOK 17/13 Q1018 NOSIG

Tid: 03:31 (00:31 UTC)

Väderprognos

Denna rapport gjordes för 1 timme och 46 minuter sedan, klockan 22:45 UTC
Prognos gäller från 19 kl. 00 UTC till 20 kl. 06 UTC
Vind 10 kt från nord
Sikt: 6000 m
Temporärt
från 19 kl. 00 UTC till 19 kl. 06 UTC
Sikt: 2000 m
fuktdis

TAF: OKBK 182245Z 1900/2006 35010KT 6000 NSC TEMPO 1900/1906 2000 BR

Aktuella väderrapporter och prognoser från 4000 flygplatser (METAR- och TAF-rapporter).

De tillgängliga stationerna syns som gula och röda prickar på kartan.

För musen över prickarna för att se namnen på stationerna.

Klicka sedan för att få väderrapporter och prognoser.

För att ändra kartan: Klicka på de gröna knapparna med ett svart kors på för att zooma in; den gröna knappen med ett streck på för att zooma ut; eller på de gröna pilarna för angränsande kartor.


METAR-TAF: